sensor_id;sensor_type;location;lat;lon;timestamp;P1;durP1;ratioP1;P2;durP2;ratioP2
80732;SDS011;70130;44.534;18.678;2023-10-19T00:00:41;77.03;;;40.83;;
80732;SDS011;70130;44.534;18.678;2023-10-19T00:03:14;78.47;;;40.38;;
80732;SDS011;70130;44.534;18.678;2023-10-19T00:05:40;74.82;;;38.60;;
80732;SDS011;70130;44.534;18.678;2023-10-19T00:08:10;69.10;;;37.33;;
80732;SDS011;70130;44.534;18.678;2023-10-19T00:11:05;64.00;;;33.70;;
80732;SDS011;70130;44.534;18.678;2023-10-19T00:13:35;62.45;;;33.60;;
80732;SDS011;70130;44.534;18.678;2023-10-19T00:16:03;66.03;;;34.85;;
80732;SDS011;70130;44.534;18.678;2023-10-19T00:18:45;63.78;;;35.58;;
80732;SDS011;70130;44.534;18.678;2023-10-19T00:21:14;61.55;;;33.53;;
80732;SDS011;70130;44.534;18.678;2023-10-19T00:23:53;60.15;;;32.25;;
80732;SDS011;70130;44.534;18.678;2023-10-19T00:26:31;59.35;;;32.58;;
80732;SDS011;70130;44.534;18.678;2023-10-19T00:28:58;63.33;;;32.85;;
80732;SDS011;70130;44.534;18.678;2023-10-19T00:31:29;61.22;;;33.30;;
80732;SDS011;70130;44.534;18.678;2023-10-19T00:34:05;56.28;;;32.22;;
80732;SDS011;70130;44.534;18.678;2023-10-19T00:36:35;57.92;;;31.08;;
80732;SDS011;70130;44.534;18.678;2023-10-19T00:39:07;59.13;;;33.10;;
80732;SDS011;70130;44.534;18.678;2023-10-19T00:41:43;52.83;;;30.63;;
80732;SDS011;70130;44.534;18.678;2023-10-19T00:47:06;52.78;;;30.92;;
80732;SDS011;70130;44.534;18.678;2023-10-19T00:49:41;51.85;;;30.80;;
80732;SDS011;70130;44.534;18.678;2023-10-19T00:52:09;50.53;;;29.45;;
80732;SDS011;70130;44.534;18.678;2023-10-19T00:57:32;60.92;;;32.05;;
80732;SDS011;70130;44.534;18.678;2023-10-19T01:02:56;58.30;;;30.42;;
80732;SDS011;70130;44.534;18.678;2023-10-19T01:05:25;60.63;;;32.08;;
80732;SDS011;70130;44.534;18.678;2023-10-19T01:07:57;51.72;;;29.98;;
80732;SDS011;70130;44.534;18.678;2023-10-19T01:10:30;62.70;;;31.77;;
80732;SDS011;70130;44.534;18.678;2023-10-19T01:12:57;55.55;;;32.35;;
80732;SDS011;70130;44.534;18.678;2023-10-19T01:15:27;57.45;;;31.63;;
80732;SDS011;70130;44.534;18.678;2023-10-19T01:17:56;55.67;;;31.38;;
80732;SDS011;70130;44.534;18.678;2023-10-19T01:23:02;58.42;;;32.53;;
80732;SDS011;70130;44.534;18.678;2023-10-19T01:25:48;59.45;;;32.50;;
80732;SDS011;70130;44.534;18.678;2023-10-19T01:28:24;70.72;;;36.70;;
80732;SDS011;70130;44.534;18.678;2023-10-19T01:30:56;62.90;;;36.17;;
80732;SDS011;70130;44.534;18.678;2023-10-19T01:33:39;67.97;;;38.72;;
80732;SDS011;70130;44.534;18.678;2023-10-19T01:36:20;65.05;;;37.53;;
80732;SDS011;70130;44.534;18.678;2023-10-19T01:38:49;69.53;;;37.05;;
80732;SDS011;70130;44.534;18.678;2023-10-19T01:41:23;75.03;;;39.03;;
80732;SDS011;70130;44.534;18.678;2023-10-19T01:43:53;68.17;;;36.00;;
80732;SDS011;70130;44.534;18.678;2023-10-19T01:46:22;59.67;;;34.33;;
80732;SDS011;70130;44.534;18.678;2023-10-19T01:48:56;58.10;;;31.77;;
80732;SDS011;70130;44.534;18.678;2023-10-19T01:51:26;60.10;;;31.40;;
80732;SDS011;70130;44.534;18.678;2023-10-19T01:53:59;60.95;;;31.08;;
80732;SDS011;70130;44.534;18.678;2023-10-19T01:56:28;51.15;;;29.15;;
80732;SDS011;70130;44.534;18.678;2023-10-19T01:58:57;50.00;;;29.77;;
80732;SDS011;70130;44.534;18.678;2023-10-19T02:01:27;57.05;;;31.27;;
80732;SDS011;70130;44.534;18.678;2023-10-19T02:03:57;54.17;;;29.92;;
80732;SDS011;70130;44.534;18.678;2023-10-19T02:06:32;54.75;;;30.77;;
80732;SDS011;70130;44.534;18.678;2023-10-19T02:09:12;56.30;;;32.28;;
80732;SDS011;70130;44.534;18.678;2023-10-19T02:11:55;58.13;;;31.58;;
80732;SDS011;70130;44.534;18.678;2023-10-19T02:14:23;57.20;;;31.95;;
80732;SDS011;70130;44.534;18.678;2023-10-19T02:16:52;61.63;;;32.50;;
80732;SDS011;70130;44.534;18.678;2023-10-19T02:19:25;62.00;;;35.45;;
80732;SDS011;70130;44.534;18.678;2023-10-19T02:24:22;66.82;;;38.10;;
80732;SDS011;70130;44.534;18.678;2023-10-19T02:26:51;67.07;;;36.75;;
80732;SDS011;70130;44.534;18.678;2023-10-19T02:32:24;56.42;;;31.55;;
80732;SDS011;70130;44.534;18.678;2023-10-19T02:34:53;47.13;;;27.85;;
80732;SDS011;70130;44.534;18.678;2023-10-19T02:37:36;43.88;;;26.00;;
80732;SDS011;70130;44.534;18.678;2023-10-19T02:40:04;49.08;;;28.20;;
80732;SDS011;70130;44.534;18.678;2023-10-19T02:42:38;50.47;;;28.73;;
80732;SDS011;70130;44.534;18.678;2023-10-19T02:47:57;41.10;;;24.33;;
80732;SDS011;70130;44.534;18.678;2023-10-19T02:50:23;41.27;;;24.90;;
80732;SDS011;70130;44.534;18.678;2023-10-19T02:53:00;47.53;;;25.33;;
80732;SDS011;70130;44.534;18.678;2023-10-19T02:55:34;42.13;;;24.30;;
80732;SDS011;70130;44.534;18.678;2023-10-19T02:58:03;44.95;;;25.70;;
80732;SDS011;70130;44.534;18.678;2023-10-19T03:00:36;37.35;;;21.77;;
80732;SDS011;70130;44.534;18.678;2023-10-19T03:06:33;45.38;;;24.48;;
80732;SDS011;70130;44.534;18.678;2023-10-19T03:09:03;44.92;;;24.30;;
80732;SDS011;70130;44.534;18.678;2023-10-19T03:11:38;38.85;;;22.45;;
80732;SDS011;70130;44.534;18.678;2023-10-19T03:14:07;39.63;;;22.42;;
80732;SDS011;70130;44.534;18.678;2023-10-19T03:16:37;36.50;;;21.52;;
80732;SDS011;70130;44.534;18.678;2023-10-19T03:19:04;36.83;;;23.42;;
80732;SDS011;70130;44.534;18.678;2023-10-19T03:21:33;37.60;;;21.38;;
80732;SDS011;70130;44.534;18.678;2023-10-19T03:24:10;37.90;;;22.48;;
80732;SDS011;70130;44.534;18.678;2023-10-19T03:26:51;34.05;;;21.48;;
80732;SDS011;70130;44.534;18.678;2023-10-19T03:29:19;39.17;;;22.95;;
80732;SDS011;70130;44.534;18.678;2023-10-19T03:31:56;39.42;;;23.55;;
80732;SDS011;70130;44.534;18.678;2023-10-19T03:34:24;34.22;;;21.30;;
80732;SDS011;70130;44.534;18.678;2023-10-19T03:37:02;39.28;;;23.15;;
80732;SDS011;70130;44.534;18.678;2023-10-19T03:39:35;36.58;;;20.95;;
80732;SDS011;70130;44.534;18.678;2023-10-19T03:42:13;33.90;;;21.13;;
80732;SDS011;70130;44.534;18.678;2023-10-19T03:44:42;36.53;;;20.58;;
80732;SDS011;70130;44.534;18.678;2023-10-19T03:47:11;38.92;;;21.10;;
80732;SDS011;70130;44.534;18.678;2023-10-19T03:49:40;34.42;;;20.42;;
80732;SDS011;70130;44.534;18.678;2023-10-19T03:52:09;43.22;;;23.98;;
80732;SDS011;70130;44.534;18.678;2023-10-19T03:54:35;42.42;;;22.80;;
80732;SDS011;70130;44.534;18.678;2023-10-19T03:57:05;44.03;;;23.38;;
80732;SDS011;70130;44.534;18.678;2023-10-19T03:59:40;39.15;;;24.08;;
80732;SDS011;70130;44.534;18.678;2023-10-19T04:02:09;41.08;;;23.48;;
80732;SDS011;70130;44.534;18.678;2023-10-19T04:04:36;45.50;;;23.58;;
80732;SDS011;70130;44.534;18.678;2023-10-19T04:07:06;40.60;;;23.40;;
80732;SDS011;70130;44.534;18.678;2023-10-19T04:09:50;42.85;;;24.73;;
80732;SDS011;70130;44.534;18.678;2023-10-19T04:12:26;45.42;;;23.92;;
80732;SDS011;70130;44.534;18.678;2023-10-19T04:15:10;49.17;;;24.63;;
80732;SDS011;70130;44.534;18.678;2023-10-19T04:17:38;44.90;;;25.20;;
80732;SDS011;70130;44.534;18.678;2023-10-19T04:20:08;46.33;;;26.50;;
80732;SDS011;70130;44.534;18.678;2023-10-19T04:22:53;46.17;;;25.67;;
80732;SDS011;70130;44.534;18.678;2023-10-19T04:25:22;40.67;;;23.27;;
80732;SDS011;70130;44.534;18.678;2023-10-19T04:27:53;41.88;;;23.70;;
80732;SDS011;70130;44.534;18.678;2023-10-19T04:30:31;37.72;;;22.95;;
80732;SDS011;70130;44.534;18.678;2023-10-19T04:33:07;39.92;;;21.58;;
80732;SDS011;70130;44.534;18.678;2023-10-19T04:35:39;34.20;;;19.80;;
80732;SDS011;70130;44.534;18.678;2023-10-19T04:38:15;35.28;;;20.23;;
80732;SDS011;70130;44.534;18.678;2023-10-19T04:43:34;37.75;;;22.85;;
80732;SDS011;70130;44.534;18.678;2023-10-19T04:46:11;37.63;;;21.88;;
80732;SDS011;70130;44.534;18.678;2023-10-19T04:52:13;40.10;;;21.90;;
80732;SDS011;70130;44.534;18.678;2023-10-19T04:54:58;35.08;;;22.25;;
80732;SDS011;70130;44.534;18.678;2023-10-19T04:57:28;42.85;;;23.27;;
80732;SDS011;70130;44.534;18.678;2023-10-19T05:00:12;41.13;;;24.98;;
80732;SDS011;70130;44.534;18.678;2023-10-19T05:02:50;45.92;;;24.88;;
80732;SDS011;70130;44.534;18.678;2023-10-19T05:05:20;44.85;;;26.63;;
80732;SDS011;70130;44.534;18.678;2023-10-19T05:07:46;48.97;;;26.15;;
80732;SDS011;70130;44.534;18.678;2023-10-19T05:10:30;46.75;;;25.83;;
80732;SDS011;70130;44.534;18.678;2023-10-19T05:13:02;46.35;;;25.77;;
80732;SDS011;70130;44.534;18.678;2023-10-19T05:15:28;48.03;;;27.50;;
80732;SDS011;70130;44.534;18.678;2023-10-19T05:17:54;57.28;;;30.85;;
80732;SDS011;70130;44.534;18.678;2023-10-19T05:20:20;70.10;;;35.65;;
80732;SDS011;70130;44.534;18.678;2023-10-19T05:22:46;76.13;;;36.90;;
80732;SDS011;70130;44.534;18.678;2023-10-19T05:25:12;68.70;;;38.20;;
80732;SDS011;70130;44.534;18.678;2023-10-19T05:27:38;66.70;;;36.60;;
80732;SDS011;70130;44.534;18.678;2023-10-19T05:30:05;69.20;;;38.80;;
80732;SDS011;70130;44.534;18.678;2023-10-19T05:32:36;74.00;;;39.92;;
80732;SDS011;70130;44.534;18.678;2023-10-19T05:35:01;71.57;;;38.53;;
80732;SDS011;70130;44.534;18.678;2023-10-19T05:37:30;72.50;;;37.47;;
80732;SDS011;70130;44.534;18.678;2023-10-19T05:39:56;71.75;;;35.72;;
80732;SDS011;70130;44.534;18.678;2023-10-19T05:42:22;71.55;;;37.33;;
80732;SDS011;70130;44.534;18.678;2023-10-19T05:44:48;66.78;;;34.88;;
80732;SDS011;70130;44.534;18.678;2023-10-19T05:47:13;69.20;;;35.25;;
80732;SDS011;70130;44.534;18.678;2023-10-19T05:49:39;61.40;;;33.95;;
80732;SDS011;70130;44.534;18.678;2023-10-19T05:52:05;65.32;;;34.47;;
80732;SDS011;70130;44.534;18.678;2023-10-19T05:54:30;60.75;;;34.25;;
80732;SDS011;70130;44.534;18.678;2023-10-19T05:56:56;66.10;;;35.47;;
80732;SDS011;70130;44.534;18.678;2023-10-19T05:59:22;60.08;;;33.55;;
80732;SDS011;70130;44.534;18.678;2023-10-19T06:01:54;58.28;;;30.58;;
80732;SDS011;70130;44.534;18.678;2023-10-19T06:04:20;49.42;;;26.60;;
80732;SDS011;70130;44.534;18.678;2023-10-19T06:06:46;47.42;;;26.20;;
80732;SDS011;70130;44.534;18.678;2023-10-19T06:09:17;46.33;;;25.85;;
80732;SDS011;70130;44.534;18.678;2023-10-19T06:11:44;41.10;;;23.77;;
80732;SDS011;70130;44.534;18.678;2023-10-19T06:14:10;40.17;;;21.75;;
80732;SDS011;70130;44.534;18.678;2023-10-19T06:16:36;38.53;;;22.60;;
80732;SDS011;70130;44.534;18.678;2023-10-19T06:19:02;40.70;;;23.15;;
80732;SDS011;70130;44.534;18.678;2023-10-19T06:21:28;48.80;;;25.67;;
80732;SDS011;70130;44.534;18.678;2023-10-19T06:23:55;42.83;;;25.55;;
80732;SDS011;70130;44.534;18.678;2023-10-19T06:26:21;42.78;;;24.20;;
80732;SDS011;70130;44.534;18.678;2023-10-19T06:28:46;42.20;;;25.70;;
80732;SDS011;70130;44.534;18.678;2023-10-19T06:31:12;39.08;;;23.75;;
80732;SDS011;70130;44.534;18.678;2023-10-19T06:33:40;38.33;;;20.67;;
80732;SDS011;70130;44.534;18.678;2023-10-19T06:36:06;40.53;;;21.65;;
80732;SDS011;70130;44.534;18.678;2023-10-19T06:38:32;41.40;;;22.92;;
80732;SDS011;70130;44.534;18.678;2023-10-19T06:40:59;45.30;;;26.80;;
80732;SDS011;70130;44.534;18.678;2023-10-19T06:43:25;50.25;;;28.35;;
80732;SDS011;70130;44.534;18.678;2023-10-19T06:45:55;55.03;;;31.65;;
80732;SDS011;70130;44.534;18.678;2023-10-19T06:48:21;59.17;;;32.22;;
80732;SDS011;70130;44.534;18.678;2023-10-19T06:50:46;48.97;;;28.40;;
80732;SDS011;70130;44.534;18.678;2023-10-19T06:53:12;45.85;;;24.90;;
80732;SDS011;70130;44.534;18.678;2023-10-19T06:55:38;38.15;;;23.55;;
80732;SDS011;70130;44.534;18.678;2023-10-19T06:58:04;39.08;;;23.45;;
80732;SDS011;70130;44.534;18.678;2023-10-19T07:00:30;37.47;;;24.70;;
80732;SDS011;70130;44.534;18.678;2023-10-19T07:02:56;41.05;;;25.70;;
80732;SDS011;70130;44.534;18.678;2023-10-19T07:05:25;39.58;;;23.55;;
80732;SDS011;70130;44.534;18.678;2023-10-19T07:10:25;39.30;;;22.30;;
80732;SDS011;70130;44.534;18.678;2023-10-19T07:12:53;40.53;;;24.70;;
80732;SDS011;70130;44.534;18.678;2023-10-19T07:15:20;39.72;;;23.88;;
80732;SDS011;70130;44.534;18.678;2023-10-19T07:17:50;46.78;;;25.25;;
80732;SDS011;70130;44.534;18.678;2023-10-19T07:20:19;43.80;;;27.42;;
80732;SDS011;70130;44.534;18.678;2023-10-19T07:23:01;55.83;;;31.08;;
80732;SDS011;70130;44.534;18.678;2023-10-19T07:25:47;51.55;;;29.98;;
80732;SDS011;70130;44.534;18.678;2023-10-19T07:28:18;48.92;;;27.60;;
80732;SDS011;70130;44.534;18.678;2023-10-19T07:30:45;38.70;;;24.05;;
80732;SDS011;70130;44.534;18.678;2023-10-19T07:33:14;32.78;;;22.10;;
80732;SDS011;70130;44.534;18.678;2023-10-19T07:35:43;38.10;;;21.63;;
80732;SDS011;70130;44.534;18.678;2023-10-19T07:38:12;36.50;;;20.67;;
80732;SDS011;70130;44.534;18.678;2023-10-19T07:40:39;34.40;;;18.80;;
80732;SDS011;70130;44.534;18.678;2023-10-19T07:43:05;30.63;;;18.42;;
80732;SDS011;70130;44.534;18.678;2023-10-19T07:45:31;37.88;;;20.92;;
80732;SDS011;70130;44.534;18.678;2023-10-19T07:47:59;33.28;;;19.30;;
80732;SDS011;70130;44.534;18.678;2023-10-19T07:50:38;36.25;;;18.80;;
80732;SDS011;70130;44.534;18.678;2023-10-19T07:53:05;38.25;;;21.02;;
80732;SDS011;70130;44.534;18.678;2023-10-19T07:55:31;30.25;;;17.13;;
80732;SDS011;70130;44.534;18.678;2023-10-19T07:57:58;34.92;;;18.88;;
80732;SDS011;70130;44.534;18.678;2023-10-19T08:00:28;34.13;;;16.13;;
80732;SDS011;70130;44.534;18.678;2023-10-19T08:03:01;37.40;;;18.77;;
80732;SDS011;70130;44.534;18.678;2023-10-19T08:05:28;32.90;;;17.25;;
80732;SDS011;70130;44.534;18.678;2023-10-19T08:07:54;30.55;;;17.67;;
80732;SDS011;70130;44.534;18.678;2023-10-19T08:10:20;28.73;;;17.48;;
80732;SDS011;70130;44.534;18.678;2023-10-19T08:12:46;28.23;;;17.02;;
80732;SDS011;70130;44.534;18.678;2023-10-19T08:15:13;28.33;;;16.10;;
80732;SDS011;70130;44.534;18.678;2023-10-19T08:17:42;25.88;;;14.90;;
80732;SDS011;70130;44.534;18.678;2023-10-19T08:20:09;26.63;;;15.30;;
80732;SDS011;70130;44.534;18.678;2023-10-19T08:22:41;26.48;;;14.93;;
80732;SDS011;70130;44.534;18.678;2023-10-19T08:25:08;28.20;;;16.88;;
80732;SDS011;70130;44.534;18.678;2023-10-19T08:27:55;26.65;;;14.57;;
80732;SDS011;70130;44.534;18.678;2023-10-19T08:30:23;38.72;;;21.25;;
80732;SDS011;70130;44.534;18.678;2023-10-19T08:32:51;29.50;;;15.68;;
80732;SDS011;70130;44.534;18.678;2023-10-19T08:35:18;24.52;;;15.00;;
80732;SDS011;70130;44.534;18.678;2023-10-19T08:37:50;22.90;;;13.50;;
80732;SDS011;70130;44.534;18.678;2023-10-19T08:40:19;23.58;;;12.73;;
80732;SDS011;70130;44.534;18.678;2023-10-19T08:42:46;26.63;;;13.52;;
80732;SDS011;70130;44.534;18.678;2023-10-19T08:45:14;24.58;;;14.38;;
80732;SDS011;70130;44.534;18.678;2023-10-19T08:50:36;29.90;;;15.77;;
80732;SDS011;70130;44.534;18.678;2023-10-19T08:53:06;28.25;;;16.45;;
80732;SDS011;70130;44.534;18.678;2023-10-19T08:55:44;31.05;;;19.15;;
80732;SDS011;70130;44.534;18.678;2023-10-19T08:58:10;40.90;;;21.25;;
80732;SDS011;70130;44.534;18.678;2023-10-19T09:00:47;25.98;;;15.13;;
80732;SDS011;70130;44.534;18.678;2023-10-19T09:03:15;29.55;;;16.38;;
80732;SDS011;70130;44.534;18.678;2023-10-19T09:05:42;24.35;;;14.55;;
80732;SDS011;70130;44.534;18.678;2023-10-19T09:10:42;19.85;;;11.95;;
80732;SDS011;70130;44.534;18.678;2023-10-19T09:13:10;17.80;;;11.20;;
80732;SDS011;70130;44.534;18.678;2023-10-19T09:15:38;16.83;;;10.75;;
80732;SDS011;70130;44.534;18.678;2023-10-19T09:18:18;19.23;;;10.55;;
80732;SDS011;70130;44.534;18.678;2023-10-19T09:20:50;15.48;;;8.80;;
80732;SDS011;70130;44.534;18.678;2023-10-19T09:23:24;15.13;;;8.18;;
80732;SDS011;70130;44.534;18.678;2023-10-19T09:25:56;12.15;;;7.10;;
80732;SDS011;70130;44.534;18.678;2023-10-19T09:28:24;12.15;;;6.75;;
80732;SDS011;70130;44.534;18.678;2023-10-19T09:30:50;7.00;;;4.78;;
80732;SDS011;70130;44.534;18.678;2023-10-19T09:33:18;11.23;;;6.45;;
80732;SDS011;70130;44.534;18.678;2023-10-19T09:35:47;12.00;;;6.50;;
80732;SDS011;70130;44.534;18.678;2023-10-19T09:38:16;11.20;;;5.85;;
80732;SDS011;70130;44.534;18.678;2023-10-19T09:40:54;15.60;;;8.13;;
80732;SDS011;70130;44.534;18.678;2023-10-19T09:43:34;13.27;;;6.32;;
80732;SDS011;70130;44.534;18.678;2023-10-19T09:46:05;10.30;;;5.57;;
80732;SDS011;70130;44.534;18.678;2023-10-19T09:48:34;10.63;;;5.47;;
80732;SDS011;70130;44.534;18.678;2023-10-19T09:51:13;11.38;;;6.47;;
80732;SDS011;70130;44.534;18.678;2023-10-19T09:53:48;8.30;;;5.45;;
80732;SDS011;70130;44.534;18.678;2023-10-19T09:56:24;8.43;;;4.70;;
80732;SDS011;70130;44.534;18.678;2023-10-19T09:58:57;9.07;;;4.10;;
80732;SDS011;70130;44.534;18.678;2023-10-19T10:01:27;9.43;;;5.00;;
80732;SDS011;70130;44.534;18.678;2023-10-19T10:03:53;10.25;;;5.03;;
80732;SDS011;70130;44.534;18.678;2023-10-19T10:09:19;5.93;;;3.80;;
80732;SDS011;70130;44.534;18.678;2023-10-19T10:11:51;10.52;;;5.03;;
80732;SDS011;70130;44.534;18.678;2023-10-19T10:14:22;6.53;;;4.07;;
80732;SDS011;70130;44.534;18.678;2023-10-19T10:17:02;10.15;;;3.85;;
80732;SDS011;70130;44.534;18.678;2023-10-19T10:19:28;5.50;;;2.97;;
80732;SDS011;70130;44.534;18.678;2023-10-19T10:24:53;7.90;;;3.88;;
80732;SDS011;70130;44.534;18.678;2023-10-19T10:27:23;7.97;;;3.90;;
80732;SDS011;70130;44.534;18.678;2023-10-19T10:29:58;6.97;;;3.80;;
80732;SDS011;70130;44.534;18.678;2023-10-19T10:38:03;8.65;;;3.58;;
80732;SDS011;70130;44.534;18.678;2023-10-19T10:40:47;9.43;;;4.15;;
80732;SDS011;70130;44.534;18.678;2023-10-19T10:43:14;6.57;;;3.75;;
80732;SDS011;70130;44.534;18.678;2023-10-19T10:45:40;7.40;;;3.40;;
80732;SDS011;70130;44.534;18.678;2023-10-19T10:48:13;8.13;;;3.90;;
80732;SDS011;70130;44.534;18.678;2023-10-19T10:50:39;6.82;;;3.63;;
80732;SDS011;70130;44.534;18.678;2023-10-19T10:53:07;5.97;;;3.65;;
80732;SDS011;70130;44.534;18.678;2023-10-19T10:55:33;7.82;;;4.20;;
80732;SDS011;70130;44.534;18.678;2023-10-19T10:58:00;8.43;;;3.40;;
80732;SDS011;70130;44.534;18.678;2023-10-19T11:00:26;6.18;;;2.53;;
80732;SDS011;70130;44.534;18.678;2023-10-19T11:03:02;8.80;;;3.92;;
80732;SDS011;70130;44.534;18.678;2023-10-19T11:05:30;4.80;;;3.13;;
80732;SDS011;70130;44.534;18.678;2023-10-19T11:10:42;6.63;;;3.80;;
80732;SDS011;70130;44.534;18.678;2023-10-19T11:13:22;7.28;;;3.53;;
80732;SDS011;70130;44.534;18.678;2023-10-19T11:15:51;9.63;;;4.70;;
80732;SDS011;70130;44.534;18.678;2023-10-19T11:18:35;9.23;;;3.05;;
80732;SDS011;70130;44.534;18.678;2023-10-19T11:21:14;6.75;;;3.63;;
80732;SDS011;70130;44.534;18.678;2023-10-19T11:23:41;6.32;;;3.63;;
80732;SDS011;70130;44.534;18.678;2023-10-19T11:29:59;7.97;;;2.67;;
80732;SDS011;70130;44.534;18.678;2023-10-19T11:32:36;4.70;;;2.42;;
80732;SDS011;70130;44.534;18.678;2023-10-19T11:35:05;5.93;;;3.08;;
80732;SDS011;70130;44.534;18.678;2023-10-19T11:37:50;5.80;;;2.80;;
80732;SDS011;70130;44.534;18.678;2023-10-19T11:40:18;5.25;;;2.85;;
80732;SDS011;70130;44.534;18.678;2023-10-19T11:42:45;10.73;;;2.80;;
80732;SDS011;70130;44.534;18.678;2023-10-19T11:45:10;4.93;;;3.13;;
80732;SDS011;70130;44.534;18.678;2023-10-19T11:47:37;10.35;;;3.20;;
80732;SDS011;70130;44.534;18.678;2023-10-19T11:50:03;4.22;;;2.58;;
80732;SDS011;70130;44.534;18.678;2023-10-19T11:52:29;9.35;;;3.63;;
80732;SDS011;70130;44.534;18.678;2023-10-19T11:54:55;6.10;;;3.40;;
80732;SDS011;70130;44.534;18.678;2023-10-19T11:57:21;10.30;;;2.55;;
80732;SDS011;70130;44.534;18.678;2023-10-19T11:59:48;4.85;;;2.47;;
80732;SDS011;70130;44.534;18.678;2023-10-19T12:02:20;8.00;;;3.70;;
80732;SDS011;70130;44.534;18.678;2023-10-19T12:04:46;4.80;;;2.63;;
80732;SDS011;70130;44.534;18.678;2023-10-19T12:07:12;10.73;;;3.10;;
80732;SDS011;70130;44.534;18.678;2023-10-19T12:09:38;9.75;;;2.80;;
80732;SDS011;70130;44.534;18.678;2023-10-19T12:12:09;9.48;;;3.10;;
80732;SDS011;70130;44.534;18.678;2023-10-19T12:14:36;14.38;;;3.88;;
80732;SDS011;70130;44.534;18.678;2023-10-19T12:17:02;5.78;;;2.80;;
80732;SDS011;70130;44.534;18.678;2023-10-19T12:19:31;12.30;;;3.72;;
80732;SDS011;70130;44.534;18.678;2023-10-19T12:21:56;5.47;;;3.08;;
80732;SDS011;70130;44.534;18.678;2023-10-19T12:24:22;6.88;;;2.45;;
80732;SDS011;70130;44.534;18.678;2023-10-19T12:26:49;7.57;;;3.40;;
80732;SDS011;70130;44.534;18.678;2023-10-19T12:29:16;8.23;;;2.85;;
80732;SDS011;70130;44.534;18.678;2023-10-19T12:31:44;7.47;;;2.80;;
80732;SDS011;70130;44.534;18.678;2023-10-19T12:34:09;6.40;;;2.78;;
80732;SDS011;70130;44.534;18.678;2023-10-19T12:36:36;13.07;;;3.22;;
80732;SDS011;70130;44.534;18.678;2023-10-19T12:39:02;6.88;;;2.67;;
80732;SDS011;70130;44.534;18.678;2023-10-19T12:41:31;7.80;;;3.05;;
80732;SDS011;70130;44.534;18.678;2023-10-19T12:43:57;16.88;;;4.45;;
80732;SDS011;70130;44.534;18.678;2023-10-19T12:46:23;7.88;;;4.07;;
80732;SDS011;70130;44.534;18.678;2023-10-19T12:48:50;6.60;;;2.67;;
80732;SDS011;70130;44.534;18.678;2023-10-19T12:51:16;5.18;;;2.58;;
80732;SDS011;70130;44.534;18.678;2023-10-19T12:53:49;5.50;;;2.55;;
80732;SDS011;70130;44.534;18.678;2023-10-19T12:56:17;7.57;;;3.75;;
80732;SDS011;70130;44.534;18.678;2023-10-19T12:58:43;6.45;;;2.88;;
80732;SDS011;70130;44.534;18.678;2023-10-19T13:01:09;10.80;;;3.65;;
80732;SDS011;70130;44.534;18.678;2023-10-19T13:03:45;6.68;;;3.40;;
80732;SDS011;70130;44.534;18.678;2023-10-19T13:06:11;11.30;;;3.83;;
80732;SDS011;70130;44.534;18.678;2023-10-19T13:08:38;11.27;;;3.22;;
80732;SDS011;70130;44.534;18.678;2023-10-19T13:11:06;11.57;;;3.00;;
80732;SDS011;70130;44.534;18.678;2023-10-19T13:13:32;8.70;;;3.53;;
80732;SDS011;70130;44.534;18.678;2023-10-19T13:15:58;9.05;;;3.63;;
80732;SDS011;70130;44.534;18.678;2023-10-19T13:18:25;7.43;;;3.10;;
80732;SDS011;70130;44.534;18.678;2023-10-19T13:20:54;6.70;;;2.97;;
80732;SDS011;70130;44.534;18.678;2023-10-19T13:23:22;18.95;;;4.63;;
80732;SDS011;70130;44.534;18.678;2023-10-19T13:25:47;15.82;;;3.67;;
80732;SDS011;70130;44.534;18.678;2023-10-19T13:28:26;8.95;;;3.25;;
80732;SDS011;70130;44.534;18.678;2023-10-19T13:30:53;8.23;;;3.10;;
80732;SDS011;70130;44.534;18.678;2023-10-19T13:33:19;9.82;;;3.85;;
80732;SDS011;70130;44.534;18.678;2023-10-19T13:35:46;8.05;;;4.60;;
80732;SDS011;70130;44.534;18.678;2023-10-19T13:38:13;7.53;;;3.78;;
80732;SDS011;70130;44.534;18.678;2023-10-19T13:40:40;8.90;;;3.65;;
80732;SDS011;70130;44.534;18.678;2023-10-19T13:43:07;9.43;;;3.80;;
80732;SDS011;70130;44.534;18.678;2023-10-19T13:45:39;6.40;;;2.67;;
80732;SDS011;70130;44.534;18.678;2023-10-19T13:48:06;9.90;;;4.40;;
80732;SDS011;70130;44.534;18.678;2023-10-19T13:50:33;7.43;;;2.92;;
80732;SDS011;70130;44.534;18.678;2023-10-19T13:53:00;7.43;;;2.88;;
80732;SDS011;70130;44.534;18.678;2023-10-19T13:55:27;8.32;;;2.85;;
80732;SDS011;70130;44.534;18.678;2023-10-19T13:57:54;8.52;;;4.07;;
80732;SDS011;70130;44.534;18.678;2023-10-19T14:00:21;12.10;;;3.95;;
80732;SDS011;70130;44.534;18.678;2023-10-19T14:03:03;14.35;;;5.90;;
80732;SDS011;70130;44.534;18.678;2023-10-19T14:05:30;8.45;;;4.03;;
80732;SDS011;70130;44.534;18.678;2023-10-19T14:08:08;9.40;;;3.53;;
80732;SDS011;70130;44.534;18.678;2023-10-19T14:10:34;7.68;;;2.92;;
80732;SDS011;70130;44.534;18.678;2023-10-19T14:13:01;6.60;;;2.85;;
80732;SDS011;70130;44.534;18.678;2023-10-19T14:15:27;7.35;;;3.05;;
80732;SDS011;70130;44.534;18.678;2023-10-19T14:17:55;8.75;;;2.97;;
80732;SDS011;70130;44.534;18.678;2023-10-19T14:20:23;11.95;;;3.58;;
80732;SDS011;70130;44.534;18.678;2023-10-19T14:22:49;8.50;;;3.95;;
80732;SDS011;70130;44.534;18.678;2023-10-19T14:25:16;7.18;;;3.38;;
80732;SDS011;70130;44.534;18.678;2023-10-19T14:27:45;5.68;;;2.85;;
80732;SDS011;70130;44.534;18.678;2023-10-19T14:30:15;11.05;;;3.97;;
80732;SDS011;70130;44.534;18.678;2023-10-19T14:32:48;7.80;;;3.92;;
80732;SDS011;70130;44.534;18.678;2023-10-19T14:35:17;11.15;;;3.88;;
80732;SDS011;70130;44.534;18.678;2023-10-19T14:37:45;8.75;;;4.03;;
80732;SDS011;70130;44.534;18.678;2023-10-19T14:40:19;7.78;;;4.18;;
80732;SDS011;70130;44.534;18.678;2023-10-19T14:45:13;20.38;;;6.65;;
80732;SDS011;70130;44.534;18.678;2023-10-19T14:47:41;12.57;;;4.65;;
80732;SDS011;70130;44.534;18.678;2023-10-19T14:50:11;7.28;;;4.32;;
80732;SDS011;70130;44.534;18.678;2023-10-19T14:56:45;14.27;;;6.90;;
80732;SDS011;70130;44.534;18.678;2023-10-19T14:59:11;14.13;;;6.15;;
80732;SDS011;70130;44.534;18.678;2023-10-19T15:01:37;15.98;;;5.63;;
80732;SDS011;70130;44.534;18.678;2023-10-19T15:04:02;14.40;;;4.82;;
80732;SDS011;70130;44.534;18.678;2023-10-19T15:06:28;15.07;;;5.72;;
80732;SDS011;70130;44.534;18.678;2023-10-19T15:08:54;10.40;;;5.75;;
80732;SDS011;70130;44.534;18.678;2023-10-19T15:11:20;10.88;;;5.47;;
80732;SDS011;70130;44.534;18.678;2023-10-19T15:13:47;16.00;;;5.55;;
80732;SDS011;70130;44.534;18.678;2023-10-19T15:16:13;15.38;;;9.20;;
80732;SDS011;70130;44.534;18.678;2023-10-19T15:18:39;21.63;;;9.88;;
80732;SDS011;70130;44.534;18.678;2023-10-19T15:21:10;30.83;;;12.68;;
80732;SDS011;70130;44.534;18.678;2023-10-19T15:23:39;20.40;;;11.80;;
80732;SDS011;70130;44.534;18.678;2023-10-19T15:26:06;23.33;;;12.25;;
80732;SDS011;70130;44.534;18.678;2023-10-19T15:28:32;28.45;;;13.93;;
80732;SDS011;70130;44.534;18.678;2023-10-19T15:31:00;25.38;;;13.00;;
80732;SDS011;70130;44.534;18.678;2023-10-19T15:33:26;26.85;;;11.95;;